Terminal Aerodrome Forecast
Issued by NWS

Home | Current Version | Previous Version | Text Only | Print | Product List | Glossary On
Versions: 1 2 3 4 5 6 7 8 9 10 11 12
000
FTUS44 KCRP 302328
TAFALI
TAF
KALI 302328Z 3100/3124 13015G20KT P6SM FEW050 SCT250
     FM310300 15008KT P6SM FEW020
      TEMPO 3110/3113 5SM BR
     FM311600 15008KT P6SM BKN035
     FM312100 13012G20KT P6SM VCSH SCT050 SCT250=

USA.gov is the U.S. government's official web portal to all federal, state and local government web resources and services.